OVO0649 ZGGG-ZSPD
Flight info
| Callsign | OVO0649 |
|---|---|
| Flight time | N/A |
| Altitude | 37100 |
| Route | BOVMA W41 OMDUP G471 PLT A599 ELNEX G204 SHZ W58 XSY |
| Aircraft | A339/H-SADE1E2E3GHIJ1J3J5M1P2RWXY/LB2D1 |
Departure
| Time | 2026-05-04 14:27 |
|---|---|
| Airport | Guangzhou Baiyun International Airport (ZGGG) |
Arrival
| Time | N/A |
|---|---|
| Airport | Shanghai Pudong International Airport (ZSPD) |
| Time | Latitude | Longitude | Altitude | Speed | Heading |
|---|---|---|---|---|---|
| 2026-05-04 14:16 | 23.38482 | 113.29916 | 62 ft | 0 kts | 26° |
| 2026-05-04 14:20 | 23.38475 | 113.29911 | 62 ft | 2 kts | 27° |
| 2026-05-04 14:20 | 23.38462 | 113.29904 | 62 ft | 2 kts | 25° |
| 2026-05-04 14:20 | 23.38448 | 113.29897 | 62 ft | 2 kts | 26° |
| 2026-05-04 14:21 | 23.38421 | 113.29883 | 62 ft | 2 kts | 26° |
| 2026-05-04 14:21 | 23.38408 | 113.29876 | 62 ft | 2 kts | 26° |
| 2026-05-04 14:21 | 23.38395 | 113.29868 | 62 ft | 2 kts | 26° |
| 2026-05-04 14:21 | 23.38382 | 113.29861 | 62 ft | 2 kts | 26° |
| 2026-05-04 14:22 | 23.38368 | 113.29854 | 62 ft | 2 kts | 40° |
| 2026-05-04 14:22 | 23.38362 | 113.29848 | 62 ft | 1 kts | 54° |
| 2026-05-04 14:22 | 23.38361 | 113.29845 | 62 ft | 0 kts | 53° |
| 2026-05-04 14:23 | 23.38367 | 113.29884 | 62 ft | 11 kts | 102° |
| 2026-05-04 14:24 | 23.38282 | 113.29985 | 62 ft | 22 kts | 146° |
| 2026-05-04 14:24 | 23.38177 | 113.30105 | 62 ft | 21 kts | 111° |
| 2026-05-04 14:24 | 23.38133 | 113.30262 | 62 ft | 21 kts | 105° |
| 2026-05-04 14:24 | 23.38040 | 113.30355 | 62 ft | 19 kts | 182° |
| 2026-05-04 14:25 | 23.37910 | 113.30328 | 62 ft | 18 kts | 193° |
| 2026-05-04 14:25 | 23.37789 | 113.30495 | 62 ft | 15 kts | 100° |
| 2026-05-04 14:25 | 23.37824 | 113.30590 | 62 ft | 14 kts | 21° |
| 2026-05-04 14:26 | 23.37973 | 113.30630 | 62 ft | 47 kts | 14° |
| 2026-05-04 14:26 | 23.38558 | 113.30789 | 63 ft | 121 kts | 13° |
| 2026-05-04 14:26 | 23.39571 | 113.31076 | 110 ft | 174 kts | 15° |
| 2026-05-04 14:26 | 23.40763 | 113.31419 | 624 ft | 175 kts | 14° |
| 2026-05-04 14:27 | 23.41903 | 113.31725 | 1319 ft | 163 kts | 15° |
| 2026-05-04 14:27 | 23.42967 | 113.32029 | 1858 ft | 160 kts | 17° |
| 2026-05-04 14:27 | 23.44085 | 113.32362 | 2154 ft | 173 kts | 17° |
| 2026-05-04 14:27 | 23.45292 | 113.32725 | 2432 ft | 188 kts | 18° |
| 2026-05-04 14:28 | 23.46614 | 113.33123 | 2714 ft | 204 kts | 17° |
| 2026-05-04 14:28 | 23.48038 | 113.33550 | 3007 ft | 219 kts | 17° |
| 2026-05-04 14:28 | 23.49568 | 113.34009 | 3297 ft | 235 kts | 17° |
| 2026-05-04 14:28 | 23.51176 | 113.34490 | 3660 ft | 246 kts | 17° |
| 2026-05-04 14:29 | 23.54536 | 113.35495 | 4724 ft | 252 kts | 15° |
| 2026-05-04 14:29 | 23.57994 | 113.36291 | 5792 ft | 259 kts | 8° |
| 2026-05-04 14:30 | 23.59763 | 113.36619 | 6528 ft | 259 kts | 8° |
| 2026-05-04 14:30 | 23.61481 | 113.36960 | 7447 ft | 249 kts | 12° |
| 2026-05-04 14:30 | 23.63789 | 113.39602 | 8493 ft | 268 kts | 76° |
| 2026-05-04 14:31 | 23.64197 | 113.41667 | 8806 ft | 285 kts | 79° |
| 2026-05-04 14:31 | 23.65004 | 113.46151 | 9529 ft | 315 kts | 78° |
| 2026-05-04 14:32 | 23.65958 | 113.50865 | 10591 ft | 329 kts | 77° |
| 2026-05-04 14:32 | 23.66484 | 113.53374 | 10883 ft | 346 kts | 77° |
| 2026-05-04 14:32 | 23.67035 | 113.55982 | 11166 ft | 362 kts | 77° |
| 2026-05-04 14:32 | 23.67615 | 113.58727 | 11435 ft | 379 kts | 77° |
| 2026-05-04 14:33 | 23.68211 | 113.61556 | 11703 ft | 394 kts | 77° |
| 2026-05-04 14:33 | 23.68838 | 113.64539 | 11960 ft | 409 kts | 77° |
| 2026-05-04 14:33 | 23.69486 | 113.67622 | 12338 ft | 420 kts | 77° |
| 2026-05-04 14:33 | 23.70136 | 113.70719 | 12893 ft | 424 kts | 77° |
| 2026-05-04 14:34 | 23.70798 | 113.73875 | 13463 ft | 428 kts | 77° |
| 2026-05-04 14:34 | 23.71463 | 113.77058 | 13989 ft | 433 kts | 77° |
| 2026-05-04 14:34 | 23.72134 | 113.80267 | 14516 ft | 437 kts | 77° |
| 2026-05-04 14:34 | 23.72803 | 113.83475 | 15036 ft | 441 kts | 77° |
| 2026-05-04 14:35 | 23.73488 | 113.86760 | 15555 ft | 445 kts | 76° |
| 2026-05-04 14:35 | 23.74169 | 113.90028 | 16060 ft | 449 kts | 76° |
| 2026-05-04 14:35 | 23.74862 | 113.93355 | 16552 ft | 453 kts | 76° |
| 2026-05-04 14:35 | 23.75569 | 113.96750 | 17036 ft | 457 kts | 76° |
| 2026-05-04 14:36 | 23.76271 | 114.00131 | 17518 ft | 461 kts | 76° |
| 2026-05-04 14:36 | 23.76978 | 114.03535 | 17988 ft | 464 kts | 76° |
| 2026-05-04 14:36 | 23.77690 | 114.06964 | 18460 ft | 468 kts | 76° |
| 2026-05-04 14:36 | 23.78418 | 114.10459 | 18954 ft | 471 kts | 76° |
| 2026-05-04 14:37 | 23.79134 | 114.13922 | 19444 ft | 474 kts | 76° |
| 2026-05-04 14:37 | 23.79865 | 114.17471 | 19909 ft | 477 kts | 76° |
| 2026-05-04 14:37 | 23.80589 | 114.20983 | 20368 ft | 480 kts | 77° |
| 2026-05-04 14:37 | 23.81560 | 114.24485 | 20785 ft | 481 kts | 63° |
| 2026-05-04 14:38 | 23.83422 | 114.27437 | 21199 ft | 477 kts | 42° |
| 2026-05-04 14:38 | 23.86085 | 114.29552 | 21641 ft | 468 kts | 21° |
| 2026-05-04 14:38 | 23.89137 | 114.30642 | 22060 ft | 461 kts | 8° |
| 2026-05-04 14:38 | 23.92271 | 114.31448 | 22458 ft | 465 kts | 8° |
| 2026-05-04 14:39 | 23.95420 | 114.32289 | 22824 ft | 469 kts | 8° |
| 2026-05-04 14:39 | 23.98642 | 114.33182 | 23197 ft | 474 kts | 9° |
| 2026-05-04 14:39 | 24.01841 | 114.34093 | 23581 ft | 477 kts | 9° |
| 2026-05-04 14:40 | 24.08310 | 114.35972 | 24341 ft | 484 kts | 9° |
| 2026-05-04 14:40 | 24.11544 | 114.36920 | 24695 ft | 487 kts | 9° |
| 2026-05-04 14:40 | 24.14876 | 114.37899 | 25073 ft | 490 kts | 9° |
| 2026-05-04 14:40 | 24.18161 | 114.38867 | 25454 ft | 492 kts | 9° |
| 2026-05-04 14:41 | 24.21461 | 114.39840 | 25798 ft | 495 kts | 9° |